Historique des stations

Station météo de Aubigny-sur-Nère

Altitude de la station : 197 m







Données météorologiques pour le 18/05/2021
Date
Heure
Températures Humidité Point de rosée Vitesse
du vent
Direction Rafales Windchill Pression Pluviométrie
Cumul
Date
Heure
Températures Humidité Point de rosée Vitesse
du vent
Direction Rafales Windchill Pression Pluviométrie
Cumul
18/05/2021 13:3013.3 °C48 %2.2 °C2 km/hO10 km/h13.3 1012 hPa5.1 mm
18/05/2021 13:1513.1 °C49 %2.2 °C-SO6 km/h13.3 1013 hPa4.8 mm
18/05/2021 13:0013.3 °C47 %2.2 °C3 km/hONO5 km/h13.3 1012 hPa4.8 mm
18/05/2021 12:4512.9 °C48 %2.2 °C2 km/hO13 km/h12.8 1012 hPa4.6 mm
18/05/2021 12:3012.9 °C50 %2.8 °C-SO11 km/h12.8 1013 hPa4.3 mm
18/05/2021 12:1512.7 °C50 %2.2 °C5 km/hSSO8 km/h12.8 1013 hPa4.3 mm
18/05/2021 12:0012.3 °C51 %2.2 °C2 km/hONO6 km/h12.2 1013 hPa4.1 mm
18/05/2021 11:4512.1 °C50 %1.7 °C3 km/hSO10 km/h12.2 1013 hPa4.1 mm
18/05/2021 11:3012.2 °C52 %2.2 °C3 km/hOSO6 km/h12.2 1013 hPa3.8 mm
18/05/2021 11:1512.1 °C52 %2.2 °C5 km/hSO8 km/h12.2 1013 hPa3.8 mm
18/05/2021 11:0011.7 °C51 %1.7 °C3 km/hOSO6 km/h11.7 1013 hPa3.6 mm
18/05/2021 10:4511.2 °C51 %1.1 °C3 km/hONO11 km/h11.1 1013 hPa3.6 mm
18/05/2021 10:3011.1 °C51 %1.1 °C2 km/hONO10 km/h11.1 1013 hPa3.3 mm
18/05/2021 10:1510.7 °C51 %1.1 °C5 km/hONO11 km/h10.6 1013 hPa3.3 mm
18/05/2021 10:0010.4 °C52 %0.6 °C2 km/hO10 km/h10.6 1013 hPa3.3 mm
18/05/2021 09:4510.1 °C52 %0.6 °C3 km/hOSO8 km/h9.4 1014 hPa3 mm
18/05/2021 09:3010.1 °C53 %0.6 °C3 km/hONO6 km/h9.4 1013 hPa3 mm
18/05/2021 09:159.8 °C53 %0.6 °C2 km/hO10 km/h10.0 1013 hPa3 mm
18/05/2021 09:009.7 °C53 %0.6 °C5 km/hOSO6 km/h8.9 1013 hPa2.8 mm
18/05/2021 08:459.7 °C54 %0.6 °C2 km/hO10 km/h9.4 1013 hPa2.8 mm
18/05/2021 08:309.5 °C55 %0.6 °C2 km/hOSO5 km/h9.4 1013 hPa2.8 mm
18/05/2021 08:159.5 °C57 %1.1 °C3 km/hO8 km/h8.9 1013 hPa2.8 mm
18/05/2021 08:009.3 °C58 %1.1 °C3 km/hS11 km/h8.9 1013 hPa2.5 mm
18/05/2021 07:459.3 °C58 %1.1 °C5 km/hO6 km/h8.9 1013 hPa2.5 mm
18/05/2021 07:309.2 °C58 %1.1 °C2 km/hOSO5 km/h9.4 1013 hPa2.5 mm
18/05/2021 07:159.1 °C59 %1.1 °C3 km/hSO11 km/h8.3 1013 hPa2.5 mm
18/05/2021 07:009.2 °C59 %1.7 °C2 km/hSO3 km/h9.4 1013 hPa2.3 mm
18/05/2021 06:459.1 °C59 %1.1 °C2 km/hOSO6 km/h8.9 1013 hPa2.3 mm
18/05/2021 06:309.1 °C59 %1.1 °C2 km/hSO11 km/h8.9 1013 hPa2.3 mm
18/05/2021 06:169.1 °C59 %1.1 °C2 km/hSO5 km/h8.9 1012 hPa2.3 mm
18/05/2021 06:009.0 °C59 %1.1 °C5 km/hSSO6 km/h8.3 1013 hPa2 mm
18/05/2021 05:459.0 °C59 %1.1 °C-OSO3 km/h8.9 1013 hPa2 mm
18/05/2021 05:319.0 °C59 %1.1 °C2 km/hSSO8 km/h8.9 1013 hPa2 mm
18/05/2021 05:169.0 °C59 %1.1 °C-O6 km/h8.9 1013 hPa2 mm
18/05/2021 05:019.1 °C59 %1.1 °C2 km/hSO11 km/h8.9 1013 hPa2 mm
18/05/2021 04:469.0 °C59 %1.1 °C3 km/hSO6 km/h8.3 1012 hPa1.8 mm
18/05/2021 04:319.0 °C59 %1.1 °C5 km/hSO6 km/h8.3 1012 hPa1.8 mm
18/05/2021 04:168.9 °C59 %1.1 °C3 km/hSO6 km/h8.3 1012 hPa1.8 mm
18/05/2021 04:019.1 °C58 %1.1 °C3 km/hOSO6 km/h8.3 1012 hPa1.5 mm
18/05/2021 03:469.1 °C59 %1.1 °C3 km/hSO6 km/h8.3 1013 hPa1.5 mm
18/05/2021 03:319.1 °C59 %1.1 °C5 km/hOSO10 km/h8.3 1013 hPa1.5 mm
18/05/2021 03:159.2 °C59 %1.7 °C3 km/hOSO11 km/h8.9 1013 hPa1.3 mm
18/05/2021 03:009.4 °C59 %1.7 °C5 km/hSO5 km/h8.9 1013 hPa1.3 mm
18/05/2021 02:459.4 °C59 %1.7 °C2 km/hSO5 km/h9.4 1013 hPa1 mm
18/05/2021 02:309.6 °C59 %1.7 °C5 km/hSSO6 km/h8.9 1013 hPa1 mm
18/05/2021 02:159.7 °C59 %1.7 °C5 km/hSO8 km/h8.9 1013 hPa1 mm
18/05/2021 02:009.7 °C59 %2.2 °C2 km/hSO6 km/h10.0 1013 hPa0.8 mm
18/05/2021 01:459.7 °C58 %1.7 °C2 km/hSSO8 km/h10.0 1013 hPa0.8 mm
18/05/2021 01:309.8 °C56 %1.1 °C-O5 km/h10.0 1013 hPa0.8 mm
18/05/2021 01:159.8 °C55 %1.1 °C3 km/hO6 km/h9.4 1013 hPa0.5 mm
18/05/2021 01:009.8 °C55 %1.1 °C5 km/hOSO14 km/h9.4 1013 hPa0.5 mm
18/05/2021 00:459.9 °C55 %1.1 °C2 km/hOSO11 km/h10.0 1013 hPa0.3 mm
18/05/2021 00:3010.2 °C54 %1.1 °C5 km/hO14 km/h9.4 1013 hPa0.3 mm
18/05/2021 00:1510.3 °C54 %1.1 °C3 km/hO10 km/h10.6 1013 hPa0.3 mm
18/05/2021 00:0010.4 °C54 %1.1 °C3 km/hO11 km/h10.6 1013 hPa-


Minima :

Température : 8.9 °C
Humidité : 47 %
Point de rosée : 0.6 °C
Vent moyen : 2 km/h
Windchill : 8.3
Pression atm. : 1012 hPa
Maxima :

Température : 13.3 °C
Humidité : 59 %
Point de rosée : 2.8 °C
Vent moyen : 5 km/h
Windchill : 13.3
Pression atm. : 1014 hPa
Rafales max : 14 km/h
Cumul de pluie sur 24H : 5.1 mm

Aubigny-sur-Nère est une commune du département Cher (18).
La station météorologique du réseau de l'association la plus proche de Aubigny-sur-Nère est celle de Salbris



Icône Facebook Association Météo Centre Icône Twitter Association Météo Centre Icône Chaîne Youtube Association Météo Centre Icône contact Association Météo Centre Icône Insta Association Météo Centre